RESULTADOS DE LA FECHA: Domingo 12 de Mayo, 2019 C2 | Ver Clase 2 | Ver Clase 3
FINAL C2
Puesto Nro Piloto Marca Vtas Tiempo Dif.
1 11 Gaston IANSA FIESTA KINETIC 16 29:49.201
2 14 Ever FRANETOVICH FIAT PALIO 16 29:51.053 1.852
3 2 Juan P. PASTORI TOYOTA ETIOS 16 29:51.309 2.108
4 43 Walter LOPEZ NISSAN MARCH 16 29:55.007 5.806
5 18 Marcos FERNANDEZ NISSAN MARCH 16 29:55.288 6.087
6 46 Christian ABDALA TOYOTA ETIOS 16 29:56.844 7.643
7 69 Agustin HERRERA RENAULT CLIO 16 29:58.881 9.680
8 78 Alejandro WEIMANN CHEVROLET CORSA 16 29:59.024 9.823
9 13 Joel BORGOBELLO VW TREND 16 29:59.202 10.001
10 63 Renzo TESTA FIAT PALIO 16 29:59.461 10.260
11 25 Sebastian PEREZ CHEVROLET ONIX 16 30:01.078 11.877
12 35 Diego LEANEZ TOYOTA ETIOS 16 30:02.166 12.965
13 65 Fernando GOMEZ FREDES CHEVROLET CORSA 16 30:02.493 13.292
14 111 Joel GASSMANN FIESTA KINETIC 16 30:02.673 13.472
15 1 Nicolas POSCO FIESTA KINETIC 16 30:02.819 13.618
16 36 Alejo BORGIANI VW TREND 16 30:06.065 16.864
17 21 Gabriel SCORDIA FIESTA KINETIC 16 30:14.999 25.798
18 31 Facundo LEANEZ TOYOTA ETIOS 16 30:22.607 33.406
19 8 Fernando AYALA TOYOTA ETIOS 16 30:22.608 33.407
20 66 Martin ALESSI FIESTA KINETIC 16 31:11.844 1:22.643
21 3 Julian LEPPHAILLE TOYOTA ETIOS 15 28:15.966 1 Vuelta
22 54 Facundo ROTONDO FIESTA KINETIC 15 28:24.956 1 Vuelta
23 39 Alejandro VALDERREY FIAT PALIO 13 25:06.128 3 Vueltas
24 28 Agustin LOPEZ DONZELLI RENAULT CLIO 13 25:17.301 3 Vueltas
25 7 Maximiliano BESTANI NISSAN MARCH 12 23:10.803 4 Vueltas
48 Horacio COSTA TOYOTA ETIOS 10 19:12.471 6 Vueltas
110 Juan Ignacio TORRES CHEVROLET CORSA 6 10:14.373 10 Vueltas
5 Gaston GRASSO TOYOTA ETIOS 4 7:01.749 12 Vueltas
141 Juan Pablo ROTONDO FIESTA KINETIC 4 7:02.692 12 Vueltas
120 Geronimo NUEZ NISSAN MARCH 2 3:21.943 14 Vueltas
6 Miguel CIAURRO VW TREND 1 1:48.711 15 Vueltas

Promedio del 1º 139,042 Km/h .  Record: Auto 18 1.38.990

 

Auto Nro. 24 excluido mas 4 grillas proximo evento por maniobra peligrosa al Auto Nro. 110

Auto Nro. 37 Excluido por maniobra peligrosa al Auto Nro. 7

Auto Nro. 8 Recargado con 4 puestos por maniobra peligrosa al Auto Nro. 31

Apercibidos Autos Nro. 48 por manuobra peligrosa al Auto nro. 1, Nº 46 por maniobra peligrosa al Auto Nro. 39, y Auto Nro. 3 por maniobra peligrosa al Auto Nro. 21.

Descargas
Título Archivo Descarga
196-316-final-clase-2.xls
SERIES
PRIMERA SERIE C2
Puesto Nro Piloto Marca Vtas Tiempo Dif.
1 11 Gaston IANSA FIESTA KINETIC 6 9:56.051
2 14 Ever FRANETOVICH FIAT PALIO 6 9:56.842 0.791
3 18 Marcos FERNANDEZ NISSAN MARCH 6 9:57.559 1.508
4 21 Gabriel SCORDIA FIESTA KINETIC 6 9:59.003 2.952
5 43 Walter LOPEZ NISSAN MARCH 6 9:59.802 3.751
6 2 Juan P. PASTORI TOYOTA ETIOS 6 10:00.070 4.019
7 31 Facundo LEANEZ TOYOTA ETIOS 6 10:01.462 5.411
8 69 Agustin HERRERA RENAULT CLIO 6 10:01.716 5.665
9 37 Sandro ABDALA NISSAN MARCH 6 10:02.101 6.050
10 39 Alejandro VALDERREY FIAT PALIO 6 10:02.483 6.432
11 3 Julian LEPPHAILLE TOYOTA ETIOS 6 10:06.396 10.345
12 13 Joel BORGOBELLO VW TREND 6 10:06.407 10.356
13 35 Diego LEANEZ TOYOTA ETIOS 6 10:09.034 12.983
14 6 Miguel CIAURRO VW TREND 6 10:11.310 15.259
15 46 Christian ABDALA TOYOTA ETIOS 6 10:11.418 15.367
16 48 Horacio COSTA TOYOTA ETIOS 6 10:11.737 15.686
17 52 Gustavo ACUNA VW TREND 6 10:45.119 49.068

Autos Nro. 6 y 52 Recargados con 5 segundos por falsa largada.

Descargas
Título Archivo Descarga
196-180-1-serie-clase-2.xls
SEGUNDA SERIE C2
Puesto Nro Piloto Marca Vtas Tiempo Dif.
1 1 Nicolas POSCO FIESTA KINETIC 6 9:56.904
2 120 Geronimo NUNEZ NISSAN MARCH 6 9:57.220 0.316
3 7 Maximiliano BESTANI NISSAN MARCH 6 9:58.048 1.144
4 110 Juan Ignacio TORRES CHEVROLET CORSA 6 10:04.481 7.577
5 78 Alejandro WEIMANN CHEVROLET CORSA 6 10:09.035 12.131
6 66 Martin ALESSI FIESTA KINETIC 6 10:09.983 13.079
7 63 Renzo TESTA FIAT PALIO 6 10:10.222 13.318
8 111 Joel GASSMANN FIESTA KINETIC 6 10:10.897 13.993
9 54 Facundo ROTONDO FIESTA KINETIC 6 10:11.064 14.160
10 28 Agustin LOPEZ DONZELLI RENAULT CLIO 6 10:11.699 14.795
11 24 Juan I. CANELA TOYOTA ETIOS 6 10:11.700 14.796
12 65 Fernando GOMEZ FREDES PEUGEOT 208 6 10:12.087 15.183
13 5 Gaston GRASSO TOYOTA ETIOS 6 10:20.014 23.110
14 8 Fernando AYALA RENAULT CLIO 6 10:20.247 23.343
15 141 Juan Pablo ROTONDO FIESTA KINETIC 5 8:29.912 1 Vuelta
25 Sebastian PEREZ CHEVROLET ONIX

Auto Nro. 36 Excluido parcialmente por maniobra peligrosa al Auto Nro. 141.

Auto Nro. 24 Recargado con 5 puestos por maniobra peligrosa a los Autos Nro. 28 y 66

Descargas
Título Archivo Descarga
196-240-2-serie-clase-2.xls
TERCERA SERIE C2
Puesto Nro Piloto Marca Vtas Tiempo Dif.
Descargas
CLASIFICACIONES
GENERAL CLASIFICACIÓN C2
Puesto Nro Piloto Marca Vtas Tiempo Dif.
1 14 Ever FRANETOVICH FIAT PALIO 2 1:37.953
2 1 Nicolas POSCO FIESTA KINETIC 4 1:38.157 0.204
3 11 Gaston IANSA FIESTA KINETIC 3 1:38.438 0.485
4 120 Geronimo NUNEZ NISSAN MARCH 2 1:38.446 0.493
5 18 Marcos FERNANDEZ NISSAN MARCH 5 1:38.483 0.530
6 78 Alejandro WEIMANN CHEVROLET CORSA 5 1:38.617 0.664
7 21 Gabriel SCORDIA FIESTA KINETIC 4 1:38.661 0.708
8 7 Maximiliano BESTANI NISSAN MARCH 4 1:38.689 0.736
9 43 Walter LOPEZ NISSAN MARCH 5 1:38.705 0.752
10 110 Juan Ignacio TORRES CHEVROLET CORSA 4 1:38.762 0.809
11 69 Agustin HERRERA RENAULT CLIO 3 1:38.806 0.853
12 8 Fernando AYALA TOYOTA ETIOS 6 1:38.823 0.870
13 31 Facundo LEANEZ TOYOTA ETIOS 6 1:38.833 0.880
14 28 Agustin LOPEZ DONZELLI RENAULT CLIO 5 1:38.928 0.975
15 3 Julian LEPPHAILLE TOYOTA ETIOS 3 1:38.958 1.005
16 36 Alejo BORGIANI VW TREND 3 1:39.023 1.070
17 2 Juan P. PASTORI TOYOTA ETIOS 3 1:39.057 1.104
18 63 Renzo TESTA FIAT PALIO 6 1:39.063 1.110
19 37 Sandro ABDALA NISSAN MARCH 5 1:39.078 1.125
20 111 Joel GASSMANN FIESTA KINETIC 5 1:39.093 1.140
21 13 Joel BORGOBELLO VW TREND 3 1:39.119 1.166
22 25 Sebastian PEREZ CHEVROLET ONIX 4 1:39.186 1.233
23 6 Miguel CIAURRO VW TREND 3 1:39.190 1.237
24 66 Martin ALESSI FIESTA KINETIC 5 1:39.413 1.460
25 35 Diego LEANEZ TOYOTA ETIOS 6 1:39.504 1.551
26 24 Juan I. CANELA TOYOTA ETIOS 5 1:39.518 1.565
27 48 Horacio COSTA TOYOTA ETIOS 4 1:39.550 1.597
28 65 Fernando GOMEZ FREDES PEUGEOT 208 5 1:39.756 1.803
29 39 Alejandro VALDERREY FIAT PALIO 4 1:39.775 1.822
30 54 Facundo ROTONDO FIESTA KINETIC 5 1:40.272 2.319
31 52 Gustavo ACUNA VW TREND 5 1:43.759 5.806
Descargas
Título Archivo Descarga
196-923-1-clasifica-clase-2.xls
ENTRENAMIENTOS
1° ENTRENAMIENTO C2
Puesto Nro Piloto Marca Vtas Tiempo Dif.
1 11 Gaston IANSA FIESTA KINETIC 6 1:38.325
2 1 Nicolas POSCO FIESTA KINETIC 9 1:38.495 0.170
3 18 Marcos FERNANDEZ NISSAN MARCH 11 1:38.544 0.219
4 7 Maximiliano BESTANI NISSAN MARCH 11 1:38.650 0.325
5 120 Geronimo NUNEZ NISSAN MARCH 11 1:38.672 0.347
6 13 Joel BORGOBELLO VW TREND 11 1:38.714 0.389
7 14 Ever FRANETOVICH FIAT PALIO 10 1:39.042 0.717
8 2 Juan P. PASTORI TOYOTA ETIOS 11 1:39.357 1.032
9 25 Sebastian PEREZ CHEVROLET ONIX 10 1:39.534 1.209
10 36 Alejo BORGIANI VW TREND 11 1:39.679 1.354
11 69 Agustin HERRERA RENAULT CLIO 9 1:39.768 1.443
12 43 Walter LOPEZ NISSAN MARCH 7 1:39.770 1.445
13 31 Facundo LEANEZ TOYOTA ETIOS 9 1:39.822 1.497
14 141 Juan Pablo ROTONDO FIESTA KINETIC 9 1:40.022 1.697
15 6 Miguel CIAURRO VW TREND 10 1:40.195 1.870
16 3 Julian LEPPHAILLE TOYOTA ETIOS 9 1:40.202 1.877
17 46 Christian ABDALA TOYOTA ETIOS 7 1:40.261 1.936
18 8 Fernando AYALA TOYOTA ETIOS 10 1:40.267 1.942
19 37 Sandro ABDALA NISSAN MARCH 7 1:40.347 2.022
20 78 Alejandro WEIMANN CHEVROLET CORSA 6 1:40.753 2.428
21 66 Martin ALESSI FIESTA KINETIC 5 1:40.870 2.545
22 110 Juan Ignacio TORRES CHEVROLET CORSA 7 1:41.014 2.689
23 39 Alejandro VALDERREY FIAT PALIO 5 1:41.125 2.800
24 21 Gabriel SCORDIA FIESTA KINETIC 2 1:41.135 2.810
25 5 Gaston GRASSO TOYOTA ETIOS 9 1:41.178 2.853
26 24 Juan I. CANELA TOYOTA ETIOS 6 1:41.257 2.932
27 35 Diego LEANEZ TOYOTA ETIOS 4 1:41.426 3.101
28 54 Facundo ROTONDO FIESTA KINETIC 7 1:41.505 3.180
29 28 Agustin LOPEZ DONZELLI RENAULT CLIO 5 1:41.795 3.470
30 48 Horacio COSTA TOYOTA ETIOS 7 1:42.203 3.878
31 63 Renzo TESTA FIAT PALIO 5 1:42.251 3.926
32 65 Fernando GOMEZ FREDES PEUGEOT 208 7 1:42.616 4.291
33 52 Gustavo ACUNA VW TREND 8 1:45.438 7.113
34 111 Joel GASSMANN FIESTA KINETIC 3 2:26.021 47.696

Promedio del 1º 158.133 Km/h

Descargas
Título Archivo Descarga
196-383-1-entre-clase-2.xls
2° ENTRENAMIENTO C2
Puesto Nro Piloto Marca Vtas Tiempo Dif.
1 46 Christian ABDALA TOYOTA ETIOS 9 1:38.114
2 11 Gaston IANSA FIESTA KINETIC 7 1:38.394 0.280
3 8 Fernando AYALA TOYOTA ETIOS 11 1:38.405 0.291
4 14 Ever FRANETOVICH FIAT PALIO 7 1:38.460 0.346
5 21 Gabriel SCORDIA FIESTA KINETIC 11 1:38.580 0.466
6 1 Nicolas POSCO FIESTA KINETIC 10 1:38.603 0.489
7 18 Marcos FERNANDEZ NISSAN MARCH 9 1:38.614 0.500
8 3 Julian LEPPHAILLE TOYOTA ETIOS 7 1:38.616 0.502
9 110 Juan Ignacio TORRES CHEVROLET CORSA 12 1:38.700 0.586
10 120 Geronimo NUNEZ NISSAN MARCH 9 1:38.713 0.599
11 25 Sebastian PEREZ CHEVROLET ONIX 7 1:38.812 0.698
12 63 Renzo TESTA FIAT PALIO 14 1:38.875 0.761
13 69 Agustin HERRERA RENAULT CLIO 7 1:38.893 0.779
14 37 Sandro ABDALA NISSAN MARCH 12 1:39.101 0.987
15 24 Juan I. CANELA TOYOTA ETIOS 14 1:39.127 1.013
16 2 Juan P. PASTORI TOYOTA ETIOS 4 1:39.157 1.043
17 7 Maximiliano BESTANI NISSAN MARCH 4 1:39.178 1.064
18 28 Agustin LOPEZ DONZELLI RENAULT CLIO 10 1:39.215 1.101
19 39 Alejandro VALDERREY FIAT PALIO 10 1:39.394 1.280
20 43 Walter LOPEZ NISSAN MARCH 14 1:39.472 1.358
21 35 Diego LEANEZ TOYOTA ETIOS 13 1:39.522 1.408
22 66 Martin ALESSI FIESTA KINETIC 12 1:39.649 1.535
23 78 Alejandro WEIMANN CHEVROLET CORSA 12 1:39.841 1.727
24 31 Facundo LEANEZ TOYOTA ETIOS 9 1:39.852 1.738
25 111 Joel GASSMANN FIESTA KINETIC 10 1:40.107 1.993
26 48 Horacio COSTA TOYOTA ETIOS 11 1:40.111 1.997
27 6 Miguel CIAURRO VW TREND 10 1:40.194 2.080
28 141 Juan Pablo ROTONDO FIESTA KINETIC 4 1:40.240 2.126
29 5 Gaston GRASSO VW TREND 3 1:40.369 2.255
30 65 Fernando GOMEZ FREDES PEUGEOT 208 12 1:40.454 2.340
31 36 Alejo BORGIANI VW TREND 6 1:40.513 2.399
32 54 Facundo ROTONDO FIESTA KINETIC 11 1:40.755 2.641
33 52 Gustavo ACUNA VW TREND 15 1:44.371 6.257
34 13 Joel BORGOBELLO VW TREND 8 1:46.750 8.636

Promedio del 1º 158.473 Km/h

Descargas
Título Archivo Descarga
196-121-2-entre-clase-2.xls
GENERAL ENTRENAMIENTO C2
Puesto Nro Piloto Marca Vtas Tiempo Dif.
2 11 Gaston IANSA FIESTA KINETIC 1:38.325 0.211
3 8 Fernando AYALA TOYOTA ETIOS 1:38.405 0.291
4 14 Ever FRANETOVICH FIAT PALIO 1:38.460 0.346
5 1 Nicolas POSCO FIESTA KINETIC 1:38.495 0.381
6 18 Marcos FERNANDEZ NISSAN MARCH 1:38.544 0.430
7 21 Gabriel SCORDIA FIESTA KINETIC 1:38.580 0.466
8 3 Julian LEPPHAILLE TOYOTA ETIOS 1:38.616 0.502
9 7 Maximiliano BESTANI NISSAN MARCH 1:38.650 0.536
10 120 Geronimo NUNEZ NISSAN MARCH 1:38.672 0.558
11 110 Juan Ignacio TORRES CHEVROLET CORSA 1:38.700 0.586
12 13 Joel BORGOBELLO VW TREND 1:38.714 0.600
13 25 Sebastian PEREZ CHEVROLET ONIX 1:38.812 0.698
14 63 Renzo TESTA FIAT PALIO 1:38.875 0.761
15 69 Agustin HERRERA RENAULT CLIO 1:38.893 0.779
16 37 Sandro ABDALA NISSAN MARCH 1:39.101 0.987
17 24 Juan I. CANELA TOYOTA ETIOS 1:39.127 1.013
18 2 Juan P. PASTORI TOYOTA ETIOS 1:39.157 1.043
19 28 Agustin LOPEZ DONZELLI RENAULT CLIO 1:39.215 1.101
20 39 Alejandro VALDERREY FIAT PALIO 1:39.394 1.280
21 43 Walter LOPEZ NISSAN MARCH 1:39.472 1.358
22 35 Diego LEANEZ TOYOTA ETIOS 1:39.522 1.408
23 66 Martin ALESSI FIESTA KINETIC 1:39.649 1.535
24 36 Alejo BORGIANI VW TREND 1:39.679 1.565
25 31 Facundo LEANEZ TOYOTA ETIOS 1:39.822 1.708
26 78 Alejandro WEIMANN CHEVROLET CORSA 1:39.841 1.727
27 141 Juan Pablo ROTONDO FIESTA KINETIC 1:40.022 1.908
28 111 Joel GASSMANN FIESTA KINETIC 1:40.107 1.993
29 48 Horacio COSTA TOYOTA ETIOS 1:40.111 1.997
30 6 Miguel CIAURRO VW TREND 1:40.194 2.080
31 5 Gaston GRASSO VW TREND 1:40.369 2.255
32 65 Fernando GOMEZ FREDES PEUGEOT 208 1:40.454 2.340
33 54 Facundo ROTONDO FIESTA KINETIC 1:40.755 2.641
34 52 Gustavo ACUNA VW TREND 1:44.371 6.257
Descargas
CALENDARIO AÑO 2019
Nro Fecha Circuito C2 C3
1 24/02 San Luis (La Pedrera)
2 24/03 La Pampa
3 21/04 San Juan
4 12/05 Neuquen
5 02/06 Concordia
6 14/07 A confirmar
7 04/08 Obera
8 01/09 Termas de Rio Hondo
9 29/09 Viedma
10 20/10 A confirmar
11 17/11 Rosario
12 22/12 A confirmar